KOGA/OGA METAR and TAF weather

Enter ICAO airport designator
Station Type Date Time Source
KOGA METAR 2021/02/25 01:55 UTC NOAA

KOGA 250155Z AUTO 36009KT 10SM SCT110 01/M08 A3028 RMK AO2 T00101079


Station Type Date Time Source
KOGA Decoded METAR 2021/02/25 01:55 UTC NOAA

Ogallala, Searle Field Airport, NE, United States (KOGA) 41-07-11N 101-46-08W
Feb 24, 2021 - 08:55 PM EST / 2021.02.25 0155 UTC
Wind: from the N (360 degrees) at 10 MPH (9 KT):0
Visibility: 10 mile(s):0
Sky conditions: partly cloudy
Temperature: 33.8 F (1.0 C)
Windchill: 26 F (-3 C):1
Dew Point: 17.8 F (-7.9 C)
Relative Humidity: 51%
Pressure (altimeter): 30.28 in. Hg (1025 hPa)
ob: KOGA 250155Z AUTO 36009KT 10SM SCT110 01/M08 A3028 RMK AO2 T00101079
cycle: 2

Station Type Date Time Source
KOGA TAF UTC NOAA

Error!

Example: see airport list